Volcan De Teneguia — ECLA — position and weather

sailwx.info

Track history (hours):
 
Tides and Currents Weather Stations Pressure Air Temp Water Temp Dewpoint Dewpoint Depression Visibility Wind Speed Wind Dir Waves Ship Positions

Volcan De Teneguia

Last reported at 2015-Aug-31 03:28 UTC. Time now 2015-Sep-01 06:00 UTC.
Position N 36°54' W 006°20'.

Length 145 m; draft 5.2 m.

Type: Cargo ship. MMSI: 225317000.

Date/timePositionNaut miles runAvg speedWind from/ knotsBaromVisibWave heightAir tempDewpointWater temp
2015-Aug-31 03:28N 36°54' W 006°20'9 9.4
2015-Aug-31 02:33N 36°46' W 006°25'2612.9
2015-Aug-31 00:33N 36°30' W 006°49'3214.8
2015-Aug-30 22:25N 36°08' W 007°17'1614.2
2015-Aug-30 21:19N 35°56' W 007°30'4014.5
2015-Aug-30 18:33N 35°27' W 008°05'1414.2
2015-Aug-30 17:33N 35°17' W 008°17'1414.4
2015-Aug-30 16:33N 35°07' W 008°29'1414.3
2015-Aug-30 15:33N 34°57' W 008°41'  
Track history (hours):
 
Tides and Currents Weather Stations Pressure Air Temp Water Temp Dewpoint Dewpoint Depression Visibility Wind Speed Wind Dir Waves Ship Positions

Volcan De Teneguia

Last reported at 2015-Aug-31 03:28 UTC. Time now 2015-Sep-01 06:00 UTC.
Position N 36°54' W 006°20'.

Length 145 m; draft 5.2 m.

Type: Cargo ship. MMSI: 225317000.

Date/timePositionNaut miles runAvg speedWind from/ knotsBaromVisibWave heightAir tempDewpointWater temp
2015-Aug-31 03:28N 36°54' W 006°20'9 9.4
2015-Aug-31 02:33N 36°46' W 006°25'2612.9
2015-Aug-31 00:33N 36°30' W 006°49'3214.8
2015-Aug-30 22:25N 36°08' W 007°17'1614.2
2015-Aug-30 21:19N 35°56' W 007°30'4014.5
2015-Aug-30 18:33N 35°27' W 008°05'1414.2
2015-Aug-30 17:33N 35°17' W 008°17'1414.4
2015-Aug-30 16:33N 35°07' W 008°29'1414.3
2015-Aug-30 15:33N 34°57' W 008°41'  

Dump ship's entire track history